Time;durP1;ratioP1;P1;durP2;ratioP2;P2;SDS_P1;SDS_P2;PMS_P1;PMS_P2;Temp;Humidity;BMP_temperature;BMP_pressure;BME280_temperature;BME280_humidity;BME280_pressure;Samples;Min_cycle;Max_cycle;Signal;HPM_P1;HPM_P2
2023/06/11 00:00:00;;;;;;;8.23;6.32;;;22.50;81.90;;;;;;2081193;28;20132;-70
2023/06/11 00:01:08;;;;;;;7.00;6.00;;;22.40;81.80;;;;;;2083097;28;20487;-70
2023/06/11 00:02:11;;;;;;;6.70;5.80;;;22.40;82.00;;;;;;2085029;28;20516;-70
2023/06/11 00:03:13;;;;;;;6.75;5.97;;;22.40;82.20;;;;;;2083727;28;20032;-70
2023/06/11 00:04:24;;;;;;;6.40;5.90;;;22.40;82.50;;;;;;2083963;28;20021;-70
2023/06/11 00:05:27;;;;;;;6.00;5.38;;;22.40;82.80;;;;;;2083098;28;20021;-70
2023/06/11 00:06:28;;;;;;;6.10;5.50;;;22.40;83.70;;;;;;2083030;28;20021;-70
2023/06/11 00:07:29;;;;;;;10.73;6.43;;;22.40;83.00;;;;;;2083225;28;20021;-70
2023/06/11 00:08:29;;;;;;;6.22;5.63;;;22.30;83.10;;;;;;2083273;28;20100;-70
2023/06/11 00:09:30;;;;;;;8.50;6.15;;;22.40;83.20;;;;;;2082871;28;20389;-70
2023/06/11 00:10:30;;;;;;;7.97;5.95;;;22.30;83.10;;;;;;2082318;28;20049;-70
2023/06/11 00:11:31;;;;;;;6.13;5.63;;;22.30;83.40;;;;;;2081864;28;20029;-70
2023/06/11 00:12:33;;;;;;;7.50;6.20;;;22.30;83.70;;;;;;2083389;28;20399;-70
2023/06/11 00:13:33;;;;;;;7.07;6.20;;;22.30;83.90;;;;;;2081575;28;20028;-70
2023/06/11 00:14:34;;;;;;;9.27;6.15;;;22.30;84.10;;;;;;2083624;28;20026;-70
2023/06/11 00:15:34;;;;;;;7.72;6.03;;;22.30;84.30;;;;;;2081623;28;20540;-70
2023/06/11 00:16:36;;;;;;;6.32;5.68;;;22.30;84.80;;;;;;2081107;28;20093;-70
2023/06/11 00:17:37;;;;;;;8.15;5.72;;;22.30;85.10;;;;;;2083891;28;20583;-70
2023/06/11 00:18:40;;;;;;;11.30;6.43;;;22.30;85.10;;;;;;2082248;28;20389;-70
2023/06/11 00:19:41;;;;;;;6.53;5.93;;;22.30;85.50;;;;;;2083149;28;20018;-70
2023/06/11 00:20:42;;;;;;;7.50;5.53;;;22.20;85.30;;;;;;2082960;28;20032;-70
2023/06/11 00:21:45;;;;;;;6.55;5.85;;;22.20;85.50;;;;;;2082843;28;20402;-70
2023/06/11 00:22:46;;;;;;;7.47;6.70;;;22.20;85.80;;;;;;2081459;28;20017;-70
2023/06/11 00:23:46;;;;;;;6.50;5.70;;;22.20;86.10;;;;;;2084492;28;20066;-70
2023/06/11 00:24:47;;;;;;;8.02;6.22;;;22.20;86.20;;;;;;2082232;28;20022;-70
2023/06/11 00:25:48;;;;;;;8.75;6.25;;;22.20;86.40;;;;;;2083250;28;20025;-70
2023/06/11 00:26:48;;;;;;;7.97;5.95;;;22.20;86.60;;;;;;2083552;28;20100;-70
2023/06/11 00:27:49;;;;;;;18.05;6.55;;;22.20;86.80;;;;;;2083132;28;20480;-70
2023/06/11 00:28:49;;;;;;;9.02;6.20;;;22.10;86.80;;;;;;2082000;28;20684;-70
2023/06/11 00:29:52;;;;;;;7.50;5.85;;;22.10;87.30;;;;;;2082800;28;20109;-70
2023/06/11 00:30:52;;;;;;;6.70;6.05;;;22.10;87.60;;;;;;2081146;28;20158;-70
2023/06/11 00:31:54;;;;;;;6.60;6.00;;;22.10;87.60;;;;;;2082692;28;20139;-70
2023/06/11 00:32:54;;;;;;;7.50;5.68;;;22.10;87.80;;;;;;2081821;28;20021;-70
2023/06/11 00:33:55;;;;;;;8.95;6.57;;;22.10;87.90;;;;;;2082454;28;20516;-70
2023/06/11 00:34:55;;;;;;;7.57;5.93;;;22.10;88.20;;;;;;2082975;28;20048;-70
2023/06/11 00:35:56;;;;;;;11.38;6.05;;;22.10;88.40;;;;;;2081095;28;20040;-70
2023/06/11 00:36:56;;;;;;;7.05;6.20;;;22.00;88.50;;;;;;2082641;28;20033;-70
2023/06/11 00:37:57;;;;;;;8.13;6.07;;;22.00;88.90;;;;;;2082132;28;20039;-70
2023/06/11 00:38:58;;;;;;;7.57;6.25;;;22.00;89.10;;;;;;2082744;28;21050;-70
2023/06/11 00:39:58;;;;;;;7.45;6.25;;;22.00;90.10;;;;;;2081469;28;20025;-70
2023/06/11 00:40:59;;;;;;;10.43;6.22;;;22.00;89.70;;;;;;2082941;28;20068;-70
2023/06/11 00:41:59;;;;;;;7.82;5.75;;;22.00;89.80;;;;;;2082740;28;20087;-70
2023/06/11 00:43:02;;;;;;;7.85;6.40;;;22.00;89.70;;;;;;2083398;28;20037;-70
2023/06/11 00:44:03;;;;;;;9.50;6.32;;;22.00;90.00;;;;;;2081848;28;20028;-70
2023/06/11 00:45:05;;;;;;;10.63;6.35;;;21.90;89.90;;;;;;2082695;28;20478;-70
2023/06/11 00:46:10;;;;;;;9.20;5.80;;;22.00;89.20;;;;;;2083264;28;20040;-70
2023/06/11 00:47:11;;;;;;;6.80;6.10;;;22.00;90.00;;;;;;2082864;28;20032;-70
2023/06/11 00:48:12;;;;;;;7.03;5.65;;;22.00;90.20;;;;;;2082791;28;20025;-70
2023/06/11 00:49:13;;;;;;;7.25;5.75;;;21.90;90.10;;;;;;2081053;28;20021;-70
2023/06/11 00:50:15;;;;;;;6.57;5.72;;;21.90;89.70;;;;;;2083328;28;20017;-70
2023/06/11 00:51:21;;;;;;;8.65;5.28;;;21.90;89.40;;;;;;2082143;28;20028;-70
2023/06/11 00:52:22;;;;;;;10.00;6.25;;;21.90;90.30;;;;;;2080934;28;20017;-70
2023/06/11 00:53:22;;;;;;;8.02;5.88;;;21.90;89.50;;;;;;2082473;28;20021;-70
2023/06/11 00:54:23;;;;;;;7.00;6.00;;;21.90;89.80;;;;;;2083135;28;20024;-70
2023/06/11 00:55:24;;;;;;;6.25;5.65;;;21.90;90.20;;;;;;2084194;28;20021;-70
2023/06/11 00:56:26;;;;;;;11.90;5.90;;;21.90;90.40;;;;;;2082259;28;20017;-70
2023/06/11 00:57:27;;;;;;;8.15;6.55;;;21.90;90.60;;;;;;2082085;28;20079;-70
2023/06/11 00:58:29;;;;;;;7.68;5.97;;;21.90;90.70;;;;;;2083156;28;20047;-70
2023/06/11 00:59:33;;;;;;;9.38;5.55;;;21.90;90.70;;;;;;2082148;28;20037;-70
2023/06/11 01:00:35;;;;;;;6.85;6.18;;;21.80;90.70;;;;;;2082389;28;20614;-70
2023/06/11 01:01:45;;;;;;;7.35;5.90;;;21.80;90.80;;;;;;2083200;28;20257;-70
2023/06/11 01:03:05;;;;;;;11.73;6.13;;;21.80;90.50;;;;;;2083274;28;20024;-70
2023/06/11 01:04:07;;;;;;;12.02;6.13;;;21.80;91.00;;;;;;2081451;28;20022;-70
2023/06/11 01:05:09;;;;;;;7.28;6.00;;;21.80;90.80;;;;;;2081461;28;20021;-70
2023/06/11 01:06:17;;;;;;;6.88;5.93;;;21.80;91.00;;;;;;2082270;28;20792;-70
2023/06/11 01:07:18;;;;;;;6.60;5.95;;;21.80;91.30;;;;;;2082508;28;20027;-70
2023/06/11 01:08:20;;;;;;;6.43;5.82;;;21.70;91.10;;;;;;2081978;28;20028;-70
2023/06/11 01:09:22;;;;;;;9.00;6.80;;;21.70;91.00;;;;;;2080173;28;20029;-70
2023/06/11 01:10:23;;;;;;;7.10;5.90;;;21.70;91.30;;;;;;2082322;28;20022;-70
2023/06/11 01:11:24;;;;;;;6.65;5.93;;;21.70;91.20;;;;;;2080824;28;20026;-70
2023/06/11 01:12:24;;;;;;;8.07;6.20;;;21.70;91.30;;;;;;2080849;28;20026;-70
2023/06/11 01:13:26;;;;;;;9.93;6.25;;;21.70;91.40;;;;;;2082848;28;20641;-70
2023/06/11 01:14:26;;;;;;;7.28;5.85;;;21.70;91.00;;;;;;2082429;28;20390;-70
2023/06/11 01:15:27;;;;;;;7.75;6.30;;;21.70;91.50;;;;;;2082633;28;20123;-70
2023/06/11 01:16:45;;;;;;;10.13;6.05;;;21.70;91.40;;;;;;2083437;28;20356;-71
2023/06/11 01:18:00;;;;;;;7.60;5.43;;;21.60;91.70;;;;;;2083385;28;20028;-71
2023/06/11 01:19:38;;;;;;;10.88;5.93;;;21.70;90.90;;;;;;2082231;28;20049;-71
2023/06/11 01:20:49;;;;;;;7.40;6.38;;;21.60;91.80;;;;;;2083144;28;20029;-71
2023/06/11 01:21:59;;;;;;;6.32;5.72;;;21.60;91.50;;;;;;2082523;28;20032;-71
2023/06/11 01:23:04;;;;;;;5.75;5.25;;;21.60;90.50;;;;;;2082726;28;20022;-71
2023/06/11 01:24:33;;;;;;;7.22;6.07;;;21.60;90.90;;;;;;2082406;28;20042;-70
2023/06/11 01:26:07;;;;;;;6.45;5.85;;;21.60;91.60;;;;;;2081383;28;20477;-70
2023/06/11 01:27:18;;;;;;;5.88;5.32;;;21.60;91.80;;;;;;2071998;28;20046;-70
2023/06/11 01:28:24;;;;;;;20.33;5.53;;;21.50;91.10;;;;;;2083738;28;20037;-70
2023/06/11 01:29:26;;;;;;;7.25;5.75;;;21.50;90.60;;;;;;2082745;28;20025;-70
2023/06/11 01:30:28;;;;;;;6.32;5.53;;;21.50;91.50;;;;;;2083694;28;20017;-70
2023/06/11 01:31:34;;;;;;;8.82;6.38;;;21.50;91.60;;;;;;2085258;28;20457;-71
2023/06/11 01:32:36;;;;;;;6.57;5.90;;;21.50;91.90;;;;;;2085070;28;20468;-71
2023/06/11 01:33:36;;;;;;;8.40;6.10;;;21.50;91.60;;;;;;2085113;28;20020;-71
2023/06/11 01:34:41;;;;;;;6.25;5.63;;;21.50;91.90;;;;;;2083336;28;20022;-71
2023/06/11 01:35:43;;;;;;;7.32;6.45;;;21.50;92.20;;;;;;2084613;28;20043;-71
2023/06/11 01:36:44;;;;;;;7.22;6.00;;;21.50;92.10;;;;;;2082948;28;20499;-71
2023/06/11 01:37:45;;;;;;;7.13;5.97;;;21.50;92.40;;;;;;2084517;28;20028;-71
2023/06/11 01:38:46;;;;;;;7.18;5.82;;;21.40;91.60;;;;;;2085291;28;20113;-71
2023/06/11 01:39:47;;;;;;;6.35;5.50;;;21.50;92.20;;;;;;2082930;28;20065;-71
2023/06/11 01:40:48;;;;;;;6.57;5.95;;;21.50;91.50;;;;;;2086445;28;20511;-71
2023/06/11 01:41:49;;;;;;;6.65;5.53;;;21.40;91.10;;;;;;2086243;28;20032;-71
2023/06/11 01:42:49;;;;;;;8.93;5.85;;;21.40;91.60;;;;;;2085226;28;20063;-71
2023/06/11 01:43:52;;;;;;;7.30;6.40;;;21.40;91.30;;;;;;2084990;28;20474;-71
2023/06/11 01:44:53;;;;;;;6.10;5.50;;;21.40;92.00;;;;;;2084362;28;20537;-71
2023/06/11 01:45:55;;;;;;;6.25;5.65;;;21.40;91.40;;;;;;2086331;28;20374;-71
2023/06/11 01:46:55;;;;;;;6.05;5.45;;;21.40;91.00;;;;;;2082799;28;20564;-71
2023/06/11 01:47:56;;;;;;;7.90;6.50;;;21.40;91.40;;;;;;2085630;28;20459;-71
2023/06/11 01:48:56;;;;;;;7.00;6.30;;;21.30;92.10;;;;;;2085099;28;20113;-71
2023/06/11 01:49:57;;;;;;;6.90;6.20;;;21.30;92.60;;;;;;2084173;28;20037;-71
2023/06/11 01:51:04;;;;;;;7.07;6.38;;;21.30;92.80;;;;;;2085613;28;20489;-71
2023/06/11 01:52:05;;;;;;;6.47;5.85;;;21.30;93.40;;;;;;2082160;28;20466;-71
2023/06/11 01:53:05;;;;;;;7.07;6.35;;;21.30;93.70;;;;;;2084307;28;20154;-71
2023/06/11 01:54:06;;;;;;;7.28;6.50;;;21.30;94.00;;;;;;2084894;28;20045;-70
2023/06/11 01:55:08;;;;;;;7.50;6.80;;;21.30;94.30;;;;;;2081435;28;20370;-70
2023/06/11 01:56:09;;;;;;;8.07;7.07;;;21.30;94.60;;;;;;2082840;28;20017;-70
2023/06/11 01:57:09;;;;;;;10.90;6.55;;;21.20;94.60;;;;;;2083014;28;20018;-70
2023/06/11 01:58:11;;;;;;;6.60;6.10;;;21.20;94.90;;;;;;2084101;28;20031;-70
2023/06/11 01:59:17;;;;;;;7.88;6.38;;;21.20;95.10;;;;;;2083963;28;20061;-70
2023/06/11 02:00:18;;;;;;;7.63;6.80;;;21.20;95.40;;;;;;2083379;28;20021;-70
2023/06/11 02:01:23;;;;;;;7.07;6.47;;;21.20;95.60;;;;;;2082501;28;20029;-71
2023/06/11 02:02:23;;;;;;;8.38;6.28;;;21.10;95.60;;;;;;2086173;28;20020;-71
2023/06/11 02:03:24;;;;;;;7.47;6.70;;;21.10;95.70;;;;;;2081929;28;20021;-71
2023/06/11 02:04:25;;;;;;;8.23;6.30;;;21.10;95.90;;;;;;2082814;28;20021;-71
2023/06/11 02:05:25;;;;;;;7.00;6.07;;;21.10;96.10;;;;;;2082962;28;20028;-71
2023/06/11 02:06:26;;;;;;;7.95;6.78;;;21.10;96.40;;;;;;2083925;28;20025;-71
2023/06/11 02:07:27;;;;;;;7.85;6.70;;;21.00;96.50;;;;;;2083142;28;20032;-70
2023/06/11 02:08:28;;;;;;;7.65;5.93;;;21.00;96.60;;;;;;2084132;28;20026;-70
2023/06/11 02:09:29;;;;;;;6.50;5.90;;;21.00;96.90;;;;;;2085067;28;20658;-71
2023/06/11 02:10:30;;;;;;;6.93;6.22;;;21.00;97.10;;;;;;2084101;28;20036;-71
2023/06/11 02:11:30;;;;;;;7.82;6.45;;;20.90;97.20;;;;;;2086533;28;20442;-70
2023/06/11 02:12:31;;;;;;;8.02;6.25;;;20.90;97.40;;;;;;2086362;28;20036;-70
2023/06/11 02:13:32;;;;;;;7.90;6.15;;;20.90;97.40;;;;;;2084122;28;20429;-70
2023/06/11 02:14:33;;;;;;;8.10;6.07;;;20.90;97.60;;;;;;2083818;28;20027;-70
2023/06/11 02:15:33;;;;;;;7.82;6.80;;;20.90;97.70;;;;;;2086846;28;20601;-71
2023/06/11 02:16:34;;;;;;;6.70;6.05;;;20.90;98.00;;;;;;2084229;28;20443;-71
2023/06/11 02:17:34;;;;;;;8.10;6.68;;;20.80;98.20;;;;;;2084263;28;20367;-71
2023/06/11 02:18:35;;;;;;;6.93;6.32;;;20.80;98.30;;;;;;2084042;28;20025;-71
2023/06/11 02:19:35;;;;;;;6.57;6.03;;;20.80;98.20;;;;;;2084206;28;20136;-71
2023/06/11 02:20:36;;;;;;;6.97;6.28;;;20.80;98.60;;;;;;2082837;28;20025;-71
2023/06/11 02:21:37;;;;;;;8.43;6.25;;;20.80;98.70;;;;;;2084168;28;20025;-71
2023/06/11 02:22:37;;;;;;;7.40;5.93;;;20.80;98.60;;;;;;2084797;28;20060;-71
2023/06/11 02:23:38;;;;;;;7.57;6.15;;;20.80;98.50;;;;;;2083051;28;20797;-71
2023/06/11 02:24:38;;;;;;;7.00;6.40;;;20.80;98.10;;;;;;2084005;28;20039;-71
2023/06/11 02:25:39;;;;;;;7.25;6.47;;;20.80;98.60;;;;;;2084424;28;20018;-71
2023/06/11 02:26:39;;;;;;;8.05;6.00;;;20.80;98.70;;;;;;2083418;28;20018;-71
2023/06/11 02:27:40;;;;;;;9.68;7.10;;;20.80;98.80;;;;;;2083403;28;20025;-71
2023/06/11 02:28:40;;;;;;;6.93;6.30;;;20.80;99.00;;;;;;2084218;28;20033;-71
2023/06/11 02:29:41;;;;;;;6.90;6.20;;;20.80;99.00;;;;;;2082424;28;20536;-71
2023/06/11 02:30:41;;;;;;;7.30;6.57;;;20.80;98.60;;;;;;2082719;28;20032;-71
2023/06/11 02:31:42;;;;;;;7.80;6.57;;;20.80;98.90;;;;;;2086390;28;20018;-71
2023/06/11 02:32:45;;;;;;;6.38;5.75;;;20.80;98.70;;;;;;2084522;28;20032;-71
2023/06/11 02:33:45;;;;;;;6.80;6.15;;;20.80;98.90;;;;;;2087419;28;20021;-71
2023/06/11 02:34:46;;;;;;;8.07;6.50;;;20.80;98.90;;;;;;2077052;28;20028;-71
2023/06/11 02:35:46;;;;;;;9.00;5.82;;;20.80;98.90;;;;;;2086784;28;20052;-71
2023/06/11 02:36:46;;;;;;;7.60;6.07;;;20.80;99.30;;;;;;2083039;28;20037;-70
2023/06/11 02:37:47;;;;;;;11.07;6.45;;;20.80;99.30;;;;;;2082206;28;20436;-70
2023/06/11 02:38:47;;;;;;;7.75;6.40;;;20.80;99.30;;;;;;2083907;28;20342;-70
2023/06/11 02:39:51;;;;;;;7.70;6.05;;;20.80;99.20;;;;;;2081405;28;20366;-70
2023/06/11 02:40:52;;;;;;;6.70;6.00;;;20.80;99.50;;;;;;2083266;28;20058;-70
2023/06/11 02:41:52;;;;;;;8.23;6.30;;;20.70;99.00;;;;;;2085225;28;20032;-70
2023/06/11 02:42:53;;;;;;;8.10;6.30;;;20.80;99.40;;;;;;2083312;28;20037;-70
2023/06/11 02:43:53;;;;;;;6.57;5.97;;;20.80;98.10;;;;;;2081312;28;20034;-70
2023/06/11 02:44:54;;;;;;;8.63;6.45;;;20.70;97.50;;;;;;2082752;28;20140;-70
2023/06/11 02:45:54;;;;;;;6.80;5.97;;;20.70;98.50;;;;;;2083200;28;20056;-70
2023/06/11 02:46:55;;;;;;;6.18;5.57;;;20.70;97.70;;;;;;2085640;28;20040;-70
2023/06/11 02:47:56;;;;;;;7.45;5.75;;;20.70;97.10;;;;;;2083202;28;20506;-70
2023/06/11 02:48:56;;;;;;;7.13;6.28;;;20.70;96.80;;;;;;2083225;28;20075;-70
2023/06/11 02:49:57;;;;;;;7.57;6.53;;;20.70;97.60;;;;;;2083590;28;20036;-70
2023/06/11 02:50:57;;;;;;;6.90;6.18;;;20.70;97.40;;;;;;2083465;28;20028;-70
2023/06/11 02:51:58;;;;;;;7.70;6.85;;;20.70;97.80;;;;;;2084532;28;20108;-70
2023/06/11 02:52:58;;;;;;;7.55;6.70;;;20.70;98.50;;;;;;2081930;28;20025;-70
2023/06/11 02:53:59;;;;;;;7.60;5.80;;;20.70;98.80;;;;;;2084294;28;21162;-70
2023/06/11 02:54:59;;;;;;;6.80;6.20;;;20.70;98.80;;;;;;2084474;28;20025;-70
2023/06/11 02:56:00;;;;;;;7.03;5.70;;;20.70;98.90;;;;;;2082532;28;20028;-70
2023/06/11 02:57:00;;;;;;;6.57;5.97;;;20.70;98.40;;;;;;2083605;28;20105;-70
2023/06/11 02:58:01;;;;;;;6.82;6.10;;;20.70;98.60;;;;;;2083982;28;20033;-70
2023/06/11 02:59:01;;;;;;;8.27;5.97;;;20.60;98.30;;;;;;2083704;28;20041;-70
2023/06/11 03:00:03;;;;;;;6.63;6.03;;;20.60;98.50;;;;;;2082954;28;20060;-70
2023/06/11 03:01:03;;;;;;;6.95;6.35;;;20.60;99.20;;;;;;2082599;28;20067;-70
2023/06/11 03:02:04;;;;;;;7.05;6.35;;;20.60;99.50;;;;;;2082665;28;20025;-70
2023/06/11 03:03:05;;;;;;;9.48;6.90;;;20.60;98.80;;;;;;2083691;28;20043;-70
2023/06/11 03:04:05;;;;;;;6.72;6.22;;;20.60;99.00;;;;;;2084256;28;20036;-70
2023/06/11 03:05:06;;;;;;;6.25;5.65;;;20.60;97.90;;;;;;2084213;28;20784;-70
2023/06/11 03:06:08;;;;;;;8.18;6.65;;;20.60;98.20;;;;;;2082498;28;20473;-70
2023/06/11 03:07:09;;;;;;;7.38;6.45;;;20.60;98.60;;;;;;2083575;28;20484;-70
2023/06/11 03:08:09;;;;;;;7.25;6.32;;;20.60;98.20;;;;;;2081637;28;20457;-70
2023/06/11 03:09:10;;;;;;;8.07;7.00;;;20.60;97.80;;;;;;2083191;28;20036;-70
2023/06/11 03:10:10;;;;;;;11.02;6.00;;;20.50;98.80;;;;;;2082383;28;20033;-70
2023/06/11 03:11:11;;;;;;;7.13;6.43;;;20.60;99.40;;;;;;2084450;28;20025;-70
2023/06/11 03:12:12;;;;;;;7.65;5.90;;;20.50;99.00;;;;;;2082622;28;20104;-70
2023/06/11 03:13:13;;;;;;;7.55;6.32;;;20.50;98.80;;;;;;2082257;28;20103;-70
2023/06/11 03:14:13;;;;;;;6.55;5.63;;;20.50;99.40;;;;;;2083996;28;20022;-70
2023/06/11 03:15:14;;;;;;;6.38;5.78;;;20.50;99.20;;;;;;2083358;28;20025;-70
2023/06/11 03:16:14;;;;;;;6.65;5.93;;;20.50;97.80;;;;;;2084231;28;20026;-70
2023/06/11 03:17:15;;;;;;;6.85;6.25;;;20.50;97.90;;;;;;2084548;28;20095;-70
2023/06/11 03:18:15;;;;;;;7.40;6.72;;;20.50;97.70;;;;;;2082039;28;20626;-70
2023/06/11 03:19:16;;;;;;;7.85;6.55;;;20.50;98.40;;;;;;2083746;28;20453;-70
2023/06/11 03:20:17;;;;;;;7.13;5.78;;;20.50;99.20;;;;;;2081688;28;20108;-70
2023/06/11 03:21:18;;;;;;;7.95;6.43;;;20.50;98.40;;;;;;2082938;28;20037;-70
2023/06/11 03:22:18;;;;;;;7.22;6.32;;;20.50;98.80;;;;;;2082668;28;20108;-70
2023/06/11 03:23:19;;;;;;;6.88;6.20;;;20.50;99.20;;;;;;2082512;28;20029;-70
2023/06/11 03:24:19;;;;;;;7.18;6.10;;;20.50;99.00;;;;;;2082884;28;20201;-70
2023/06/11 03:25:20;;;;;;;7.18;6.32;;;20.40;98.50;;;;;;2083474;28;20036;-70
2023/06/11 03:26:27;;;;;;;6.55;5.95;;;20.40;99.10;;;;;;2083779;28;20033;-70
2023/06/11 03:27:28;;;;;;;7.63;6.00;;;20.50;98.90;;;;;;2082602;28;20033;-70
2023/06/11 03:28:28;;;;;;;7.95;6.82;;;20.40;98.10;;;;;;2082582;28;20014;-70
2023/06/11 03:29:29;;;;;;;6.65;6.05;;;20.50;99.30;;;;;;2082586;28;20076;-70
2023/06/11 03:30:29;;;;;;;6.40;5.80;;;20.50;98.80;;;;;;2083327;28;20029;-70
2023/06/11 03:31:30;;;;;;;7.80;6.93;;;20.40;98.20;;;;;;2083515;28;20112;-70
2023/06/11 03:32:31;;;;;;;6.95;6.25;;;20.40;98.10;;;;;;2083220;28;20100;-70
2023/06/11 03:33:31;;;;;;;9.15;6.22;;;20.40;98.30;;;;;;2082671;28;20043;-70
2023/06/11 03:34:32;;;;;;;7.15;6.43;;;20.40;98.50;;;;;;2083598;28;20049;-70
2023/06/11 03:35:32;;;;;;;6.47;5.97;;;20.40;99.20;;;;;;2082505;28;20032;-70
2023/06/11 03:36:33;;;;;;;6.68;5.97;;;20.40;99.20;;;;;;2085026;28;20032;-70
2023/06/11 03:37:34;;;;;;;8.15;6.35;;;20.40;98.80;;;;;;2084415;28;20034;-70
2023/06/11 03:38:34;;;;;;;6.85;6.25;;;20.40;98.70;;;;;;2084209;28;20017;-70
2023/06/11 03:39:35;;;;;;;6.90;6.30;;;20.40;99.30;;;;;;2083671;28;20020;-70
2023/06/11 03:40:36;;;;;;;6.53;5.75;;;20.40;98.60;;;;;;2083653;28;20029;-70
2023/06/11 03:41:36;;;;;;;6.97;6.38;;;20.40;98.40;;;;;;2086879;28;20027;-70
2023/06/11 03:42:37;;;;;;;7.97;6.45;;;20.40;99.90;;;;;;2083963;28;20144;-70
2023/06/11 03:43:37;;;;;;;7.35;6.72;;;20.40;99.90;;;;;;2082433;28;20116;-70
2023/06/11 03:44:38;;;;;;;7.22;6.15;;;20.40;99.90;;;;;;2082439;28;20021;-70
2023/06/11 03:45:39;;;;;;;6.60;6.05;;;20.40;99.90;;;;;;2083309;28;20029;-70
2023/06/11 03:46:39;;;;;;;7.18;6.20;;;20.30;99.90;;;;;;2085353;28;20024;-70
2023/06/11 03:47:40;;;;;;;6.93;6.32;;;20.30;99.90;;;;;;2085195;28;20103;-70
2023/06/11 03:48:40;;;;;;;7.00;6.40;;;20.30;99.90;;;;;;2081803;28;20037;-70
2023/06/11 03:49:41;;;;;;;8.50;6.15;;;20.30;99.90;;;;;;2082214;28;20036;-70
2023/06/11 03:50:42;;;;;;;6.75;6.05;;;20.30;99.90;;;;;;2081328;28;20385;-70
2023/06/11 03:51:42;;;;;;;7.35;6.65;;;20.30;99.90;;;;;;2082102;28;20032;-70
2023/06/11 03:52:43;;;;;;;6.28;5.78;;;20.30;99.90;;;;;;2080483;28;20457;-70
2023/06/11 03:53:43;;;;;;;6.20;5.60;;;20.30;99.90;;;;;;2083640;28;20029;-70
2023/06/11 03:54:44;;;;;;;8.48;6.20;;;20.30;99.90;;;;;;2083248;28;20079;-70
2023/06/11 03:55:44;;;;;;;7.38;6.70;;;20.30;99.90;;;;;;2082439;28;20120;-70
2023/06/11 03:56:45;;;;;;;7.50;6.78;;;20.30;99.90;;;;;;2084126;28;20048;-70
2023/06/11 03:57:45;;;;;;;6.60;6.00;;;20.30;99.90;;;;;;2080727;28;20024;-70
2023/06/11 03:58:46;;;;;;;6.82;6.15;;;20.30;99.90;;;;;;2082889;28;20023;-70
2023/06/11 03:59:46;;;;;;;6.00;5.50;;;20.30;99.90;;;;;;2082900;28;20511;-70
2023/06/11 04:00:47;;;;;;;7.97;6.15;;;20.40;99.90;;;;;;2082220;28;20206;-70
2023/06/11 04:01:47;;;;;;;6.53;6.03;;;20.40;99.90;;;;;;2080639;28;20056;-70
2023/06/11 04:02:48;;;;;;;6.40;5.85;;;20.40;99.90;;;;;;2082490;28;20026;-70
2023/06/11 04:03:49;;;;;;;6.95;6.40;;;20.50;99.90;;;;;;2082372;28;20021;-70
2023/06/11 04:04:51;;;;;;;6.47;5.88;;;20.50;99.90;;;;;;2085092;28;20025;-70
2023/06/11 04:05:52;;;;;;;7.55;6.70;;;20.60;99.90;;;;;;2083335;28;20017;-70
2023/06/11 04:06:53;;;;;;;6.72;6.05;;;20.70;99.90;;;;;;2080974;28;20140;-70
2023/06/11 04:07:53;;;;;;;7.55;6.88;;;20.80;99.90;;;;;;2082868;28;20477;-70
2023/06/11 04:08:54;;;;;;;7.03;6.43;;;20.90;99.90;;;;;;2083558;28;20494;-70
2023/06/11 04:09:55;;;;;;;6.53;5.95;;;21.00;99.90;;;;;;2082849;28;20062;-70
2023/06/11 04:10:55;;;;;;;7.22;6.53;;;21.00;99.90;;;;;;2083473;28;20037;-70
2023/06/11 04:11:56;;;;;;;9.52;6.50;;;21.20;99.90;;;;;;2083117;28;20048;-70
2023/06/11 04:12:56;;;;;;;7.57;6.82;;;21.30;99.90;;;;;;2084099;28;20032;-70
2023/06/11 04:13:57;;;;;;;6.95;5.85;;;21.50;99.90;;;;;;2086913;28;20033;-70
2023/06/11 04:14:57;;;;;;;6.97;5.90;;;21.70;99.90;;;;;;2075962;28;20634;-70
2023/06/11 04:15:58;;;;;;;7.82;7.00;;;21.80;99.70;;;;;;2079461;28;20040;-70
2023/06/11 04:16:58;;;;;;;6.57;5.97;;;22.00;99.20;;;;;;2084105;28;20477;-70
2023/06/11 04:17:59;;;;;;;7.00;6.20;;;22.20;97.10;;;;;;2082356;28;20469;-70
2023/06/11 04:19:00;;;;;;;6.30;5.75;;;22.30;97.00;;;;;;2082186;28;20021;-70
2023/06/11 04:20:02;;;;;;;9.32;6.25;;;22.40;96.10;;;;;;2081221;28;20091;-70
2023/06/11 04:21:02;;;;;;;6.90;6.20;;;22.60;96.00;;;;;;2083690;28;20072;-70
2023/06/11 04:22:03;;;;;;;6.75;6.00;;;22.70;95.20;;;;;;2082744;28;20038;-70
2023/06/11 04:23:04;;;;;;;6.55;5.90;;;22.80;94.40;;;;;;2083596;28;20576;-70
2023/06/11 04:24:05;;;;;;;6.32;5.82;;;22.90;94.10;;;;;;2082577;28;20087;-70
2023/06/11 04:25:06;;;;;;;6.22;5.57;;;23.00;93.70;;;;;;2084011;28;20033;-70
2023/06/11 04:26:07;;;;;;;10.27;6.40;;;23.10;93.50;;;;;;2082951;28;20026;-70
2023/06/11 04:27:11;;;;;;;6.75;6.13;;;23.10;93.70;;;;;;2083921;28;20509;-70
2023/06/11 04:28:16;;;;;;;6.55;5.95;;;23.10;93.20;;;;;;2084324;28;20021;-70
2023/06/11 04:29:18;;;;;;;6.53;5.95;;;23.00;93.90;;;;;;2081447;28;20047;-70
2023/06/11 04:30:20;;;;;;;5.82;5.43;;;23.00;94.00;;;;;;2081681;28;20013;-70
2023/06/11 04:31:20;;;;;;;6.95;6.32;;;23.00;94.30;;;;;;2083161;28;20021;-70
2023/06/11 04:32:26;;;;;;;6.28;5.68;;;22.90;95.20;;;;;;2082460;28;20033;-70
2023/06/11 04:33:32;;;;;;;6.65;6.13;;;22.90;95.10;;;;;;2081946;28;20431;-70
2023/06/11 04:34:33;;;;;;;6.10;5.47;;;22.90;95.00;;;;;;2080933;28;20052;-70
2023/06/11 04:35:35;;;;;;;7.13;5.97;;;22.80;96.00;;;;;;2083911;28;20029;-70
2023/06/11 04:36:38;;;;;;;7.25;6.05;;;22.80;96.60;;;;;;2082164;28;20025;-70
2023/06/11 04:37:39;;;;;;;6.43;5.80;;;22.80;96.00;;;;;;2082312;28;20021;-70
2023/06/11 04:38:44;;;;;;;8.50;5.97;;;22.80;96.60;;;;;;2083534;28;20032;-70
2023/06/11 04:39:45;;;;;;;6.15;5.55;;;22.80;97.70;;;;;;2084137;28;20453;-70
2023/06/11 04:40:45;;;;;;;5.70;5.30;;;22.90;97.40;;;;;;2083201;28;20449;-70
2023/06/11 04:41:47;;;;;;;7.72;5.53;;;22.90;97.20;;;;;;2084191;28;20574;-70
2023/06/11 04:42:48;;;;;;;5.78;5.28;;;22.90;98.10;;;;;;2082851;28;20080;-70
2023/06/11 04:43:49;;;;;;;6.20;5.68;;;22.90;97.40;;;;;;2081258;28;20035;-70
2023/06/11 04:44:49;;;;;;;6.60;5.97;;;23.00;98.40;;;;;;2082585;28;20060;-70
2023/06/11 04:45:56;;;;;;;5.85;5.35;;;23.00;98.50;;;;;;2083211;28;20021;-70
2023/06/11 04:46:57;;;;;;;6.38;5.32;;;23.10;98.60;;;;;;2082876;28;20122;-70
2023/06/11 04:47:58;;;;;;;7.80;5.63;;;23.10;98.40;;;;;;2083815;28;20029;-70
2023/06/11 04:49:00;;;;;;;7.47;5.72;;;23.20;98.20;;;;;;2082940;28;20025;-70
2023/06/11 04:50:04;;;;;;;6.82;6.13;;;23.20;97.70;;;;;;2081163;28;20056;-70
2023/06/11 04:51:04;;;;;;;6.05;5.45;;;23.30;97.10;;;;;;2082531;28;20393;-70
2023/06/11 04:52:05;;;;;;;6.05;5.53;;;23.30;97.60;;;;;;2082521;28;20056;-70
2023/06/11 04:53:05;;;;;;;6.10;5.60;;;23.40;96.80;;;;;;2082266;28;20029;-70
2023/06/11 04:54:07;;;;;;;5.70;5.20;;;23.40;96.50;;;;;;2082740;28;20259;-70
2023/06/11 04:55:09;;;;;;;7.28;5.90;;;23.50;96.90;;;;;;2081955;28;20021;-70
2023/06/11 04:56:10;;;;;;;5.78;5.18;;;23.50;96.30;;;;;;2083574;28;20024;-70
2023/06/11 04:57:14;;;;;;;6.35;5.85;;;23.60;96.10;;;;;;2081940;28;20045;-70
2023/06/11 04:58:14;;;;;;;6.07;5.50;;;23.60;96.10;;;;;;2082121;28;20673;-70
2023/06/11 04:59:15;;;;;;;6.60;5.30;;;23.70;95.90;;;;;;2081131;28;20497;-70
2023/06/11 05:00:16;;;;;;;7.57;5.13;;;23.70;94.70;;;;;;2080647;28;20021;-70
2023/06/11 05:01:16;;;;;;;5.88;5.35;;;23.80;94.10;;;;;;2083784;28;20025;-70
2023/06/11 05:02:17;;;;;;;6.10;5.50;;;23.90;94.70;;;;;;2083310;28;20469;-70
2023/06/11 05:03:19;;;;;;;5.47;4.97;;;23.90;95.00;;;;;;2083863;28;20020;-70
2023/06/11 05:04:19;;;;;;;6.75;5.10;;;24.00;94.10;;;;;;2084098;28;20032;-70
2023/06/11 05:05:20;;;;;;;5.43;4.93;;;24.10;93.40;;;;;;2082634;28;20481;-70
2023/06/11 05:06:21;;;;;;;5.85;5.28;;;24.10;93.30;;;;;;2082669;28;20034;-70
2023/06/11 05:07:21;;;;;;;6.00;5.30;;;24.20;92.60;;;;;;2082387;28;20025;-70
2023/06/11 05:08:28;;;;;;;6.45;5.40;;;24.30;92.20;;;;;;2082949;28;20017;-70
2023/06/11 05:09:28;;;;;;;5.72;5.15;;;24.30;91.90;;;;;;2083908;28;20025;-70
2023/06/11 05:10:29;;;;;;;6.60;5.03;;;24.40;92.30;;;;;;2080870;28;20032;-70
2023/06/11 05:11:29;;;;;;;5.65;4.95;;;24.40;91.60;;;;;;2081500;28;20060;-70
2023/06/11 05:12:30;;;;;;;6.07;5.07;;;24.50;90.40;;;;;;2082640;28;20064;-70
2023/06/11 05:13:30;;;;;;;6.70;5.13;;;24.60;90.10;;;;;;2084661;28;20035;-70
2023/06/11 05:14:31;;;;;;;5.40;4.90;;;24.70;89.20;;;;;;2084445;28;20021;-70
2023/06/11 05:15:32;;;;;;;6.22;5.45;;;24.70;88.40;;;;;;2085370;28;20021;-70
2023/06/11 05:16:32;;;;;;;5.75;5.25;;;24.80;88.10;;;;;;2081779;28;20020;-70
2023/06/11 05:17:33;;;;;;;7.10;5.18;;;24.80;87.80;;;;;;2081695;28;20122;-70
2023/06/11 05:18:33;;;;;;;6.43;4.80;;;25.00;86.70;;;;;;2081381;28;20461;-70
2023/06/11 05:19:34;;;;;;;5.95;5.38;;;25.00;86.40;;;;;;2082924;28;20017;-70
2023/06/11 05:20:35;;;;;;;5.45;4.95;;;25.00;85.70;;;;;;2080380;28;20022;-70